Time;durP1;ratioP1;P1;durP2;ratioP2;P2;SDS_P1;SDS_P2;PMS_P1;PMS_P2;Temp;Humidity;BMP_temperature;BMP_pressure;BME280_temperature;BME280_humidity;BME280_pressure;Samples;Min_cycle;Max_cycle;Signal;HPM_P1;HPM_P2
2021/05/18 00:02:00;;;;;;;5.93;2.10;;;10.70;99.90;;;;;;5091733;28;20208;-75
2021/05/18 00:04:27;;;;;;;4.93;2.10;;;10.80;99.90;;;;;;5092269;28;20213;-75
2021/05/18 00:06:54;;;;;;;9.07;3.00;;;10.90;99.90;;;;;;5090839;28;20704;-75
2021/05/18 00:12:06;;;;;;;8.20;3.30;;;10.70;99.90;;;;;;5091496;28;20255;-76
2021/05/18 00:14:35;;;;;;;7.33;2.70;;;10.90;99.90;;;;;;5091927;28;20212;-75
2021/05/18 00:17:03;;;;;;;5.47;2.37;;;10.80;99.90;;;;;;5091120;28;20665;-75
2021/05/18 00:19:30;;;;;;;7.27;2.63;;;10.90;99.90;;;;;;5091900;28;20213;-75
2021/05/18 00:21:56;;;;;;;6.40;2.43;;;11.00;99.90;;;;;;5091040;28;20216;-75
2021/05/18 00:24:23;;;;;;;6.63;2.60;;;11.10;99.90;;;;;;5091760;28;20224;-75
2021/05/18 00:26:49;;;;;;;8.27;2.37;;;11.00;99.90;;;;;;5091980;28;20205;-75
2021/05/18 00:29:16;;;;;;;7.87;2.40;;;10.80;99.90;;;;;;5091251;28;20251;-75
2021/05/18 00:31:43;;;;;;;5.97;2.83;;;10.80;99.90;;;;;;5091370;28;20205;-76
2021/05/18 00:34:11;;;;;;;9.00;2.53;;;10.60;99.90;;;;;;5090459;28;20225;-75
2021/05/18 00:36:37;;;;;;;10.40;2.97;;;10.60;99.90;;;;;;5091636;28;20575;-74
2021/05/18 00:39:05;;;;;;;11.50;3.60;;;10.50;99.90;;;;;;5090922;28;20213;-74
2021/05/18 00:41:32;;;;;;;7.87;2.33;;;10.60;99.90;;;;;;5085733;28;20207;-74
2021/05/18 00:43:58;;;;;;;13.43;3.33;;;10.80;99.90;;;;;;5081527;28;20213;-74
2021/05/18 00:46:25;;;;;;;10.97;2.97;;;10.80;99.90;;;;;;5088648;28;20939;-75
2021/05/18 00:48:58;;;;;;;7.70;2.00;;;10.80;99.90;;;;;;5080047;28;20676;-75
2021/05/18 00:51:26;;;;;;;4.57;2.00;;;11.90;99.90;;;;;;5091121;28;20205;-74
2021/05/18 00:53:53;;;;;;;11.37;3.00;;;11.00;99.90;;;;;;5091064;28;20704;-75
2021/05/18 00:56:33;;;;;;;6.40;2.37;;;11.00;99.90;;;;;;5091648;28;20224;-75
2021/05/18 00:59:01;;;;;;;7.47;2.37;;;10.60;99.90;;;;;;5090394;28;20248;-74
2021/05/18 01:01:27;;;;;;;6.93;2.57;;;11.10;99.90;;;;;;5091066;28;20251;-74
2021/05/18 01:03:55;;;;;;;7.90;3.00;;;11.20;99.90;;;;;;5090689;28;20209;-75
2021/05/18 01:06:28;;;;;;;11.50;2.60;;;11.30;99.90;;;;;;5091096;28;20201;-74
2021/05/18 01:08:56;;;;;;;6.70;3.03;;;11.20;99.90;;;;;;5090546;28;20240;-75
2021/05/18 01:11:26;;;;;;;8.83;2.77;;;11.20;99.90;;;;;;5090756;28;20198;-75
2021/05/18 01:13:57;;;;;;;10.23;2.80;;;11.20;99.90;;;;;;5090693;28;20608;-76
2021/05/18 01:16:25;;;;;;;10.70;3.60;;;11.20;99.90;;;;;;5067258;28;20288;-75
2021/05/18 01:18:53;;;;;;;6.80;2.23;;;11.30;99.90;;;;;;5089626;28;20205;-75
2021/05/18 01:21:21;;;;;;;7.13;2.00;;;11.30;99.90;;;;;;5089521;28;20213;-74
2021/05/18 01:23:47;;;;;;;9.30;2.33;;;11.30;99.90;;;;;;5090855;28;20217;-74
2021/05/18 01:26:15;;;;;;;9.73;2.23;;;11.30;99.90;;;;;;5090430;28;20229;-74
2021/05/18 01:28:42;;;;;;;5.63;2.47;;;11.30;99.90;;;;;;5091078;28;20208;-74
2021/05/18 01:31:10;;;;;;;9.87;3.07;;;11.30;99.90;;;;;;5090371;28;20206;-73
2021/05/18 01:33:38;;;;;;;6.60;2.37;;;11.40;99.90;;;;;;5090107;28;20230;-73
2021/05/18 01:36:08;;;;;;;7.40;2.40;;;11.30;99.90;;;;;;5090382;28;20266;-73
2021/05/18 01:38:40;;;;;;;6.50;1.93;;;11.20;99.90;;;;;;5090323;28;20202;-75
2021/05/18 01:43:53;;;;;;;5.00;2.00;;;11.30;99.90;;;;;;5090675;28;20216;-74
2021/05/18 01:46:21;;;;;;;6.77;2.60;;;11.20;99.90;;;;;;5091032;28;20205;-75
2021/05/18 01:48:57;;;;;;;10.27;3.03;;;11.20;99.90;;;;;;5090765;28;20209;-75
2021/05/18 01:51:26;;;;;;;9.00;3.43;;;11.30;99.90;;;;;;5090575;28;20208;-75
2021/05/18 01:53:53;;;;;;;8.13;2.80;;;11.20;99.90;;;;;;5090439;28;20232;-75
2021/05/18 01:56:34;;;;;;;8.17;3.57;;;11.30;99.90;;;;;;5090671;28;20231;-76
2021/05/18 01:59:05;;;;;;;8.50;2.23;;;11.30;99.90;;;;;;5090021;28;20201;-76
2021/05/18 02:01:32;;;;;;;3.27;2.00;;;11.40;99.90;;;;;;5090385;28;20205;-74
2021/05/18 02:04:00;;;;;;;6.73;2.20;;;11.40;99.90;;;;;;5089973;28;20209;-74
2021/05/18 02:06:28;;;;;;;5.83;2.30;;;11.20;99.90;;;;;;5090652;28;20262;-75
2021/05/18 02:08:56;;;;;;;8.60;2.70;;;11.30;99.90;;;;;;5089630;28;20558;-74
2021/05/18 02:11:23;;;;;;;5.53;1.60;;;11.30;99.90;;;;;;5090353;28;20213;-75
2021/05/18 02:13:50;;;;;;;6.67;3.27;;;11.30;99.90;;;;;;5090660;28;20244;-75
2021/05/18 02:16:22;;;;;;;10.07;2.60;;;11.20;99.90;;;;;;5089988;28;20643;-75
2021/05/18 02:19:02;;;;;;;3.63;1.73;;;11.40;99.90;;;;;;5090631;28;20211;-75
2021/05/18 02:21:42;;;;;;;8.47;2.37;;;11.40;99.90;;;;;;5090407;28;20200;-74
2021/05/18 02:26:54;;;;;;;6.00;3.13;;;11.40;99.90;;;;;;5089862;28;20585;-75
2021/05/18 02:29:21;;;;;;;5.73;2.13;;;11.30;99.90;;;;;;5090468;28;20213;-76
2021/05/18 02:31:49;;;;;;;7.53;1.70;;;11.40;99.90;;;;;;5092610;28;20205;-76
2021/05/18 02:34:15;;;;;;;6.60;2.33;;;11.50;99.90;;;;;;5093421;28;20233;-76
2021/05/18 02:36:42;;;;;;;6.57;2.27;;;11.50;99.90;;;;;;5093734;28;20202;-76
2021/05/18 02:39:09;;;;;;;6.60;2.30;;;11.50;99.90;;;;;;5093740;28;20266;-76
2021/05/18 02:41:36;;;;;;;4.73;1.70;;;11.50;99.90;;;;;;5093648;28;20593;-77
2021/05/18 02:44:07;;;;;;;9.03;2.23;;;11.40;99.90;;;;;;5093588;28;20210;-77
2021/05/18 02:49:17;;;;;;;5.53;2.50;;;11.40;99.90;;;;;;5093415;28;20204;-74
2021/05/18 02:51:47;;;;;;;4.80;2.00;;;11.40;99.90;;;;;;5093634;28;20292;-75
2021/05/18 02:54:17;;;;;;;7.07;1.80;;;11.50;99.90;;;;;;5093100;28;20611;-75
2021/05/18 02:56:47;;;;;;;8.77;2.63;;;11.50;99.90;;;;;;5093413;28;20205;-74
2021/05/18 02:59:16;;;;;;;7.00;1.83;;;11.50;99.90;;;;;;5078200;28;20201;-74
2021/05/18 03:01:46;;;;;;;8.50;2.67;;;11.40;99.90;;;;;;5080604;28;20554;-75
2021/05/18 03:04:12;;;;;;;8.17;2.27;;;11.50;99.90;;;;;;5074425;28;20213;-74
2021/05/18 03:06:39;;;;;;;2.73;1.43;;;11.30;99.90;;;;;;5074449;28;20202;-74
2021/05/18 03:09:10;;;;;;;6.73;2.20;;;11.40;99.90;;;;;;5089044;28;20208;-74
2021/05/18 03:11:39;;;;;;;7.60;2.10;;;11.40;99.90;;;;;;5089871;28;20205;-74
2021/05/18 03:14:06;;;;;;;5.87;2.03;;;11.40;99.90;;;;;;5092119;28;20233;-74
2021/05/18 03:16:34;;;;;;;7.77;2.20;;;11.20;99.90;;;;;;5093010;28;20944;-74
2021/05/18 03:19:01;;;;;;;4.30;1.97;;;11.30;99.90;;;;;;5092425;28;20235;-74
2021/05/18 03:21:28;;;;;;;9.90;2.27;;;11.30;99.90;;;;;;5091720;28;20216;-75
2021/05/18 03:23:55;;;;;;;13.80;2.37;;;11.30;99.90;;;;;;5091154;28;20202;-76
2021/05/18 03:26:22;;;;;;;9.07;2.90;;;11.30;99.90;;;;;;5092838;28;20194;-74
2021/05/18 03:28:56;;;;;;;6.57;1.70;;;11.20;99.90;;;;;;5093006;28;20637;-74
2021/05/18 03:36:51;;;;;;;6.90;2.03;;;11.10;99.90;;;;;;5066652;28;20737;-74
2021/05/18 03:39:17;;;;;;;4.13;2.00;;;11.20;99.90;;;;;;5092664;28;20588;-74
2021/05/18 03:41:53;;;;;;;3.23;1.67;;;11.20;99.90;;;;;;5092216;28;20205;-73
2021/05/18 03:44:26;;;;;;;5.67;2.20;;;11.10;99.90;;;;;;5092949;28;20208;-75
2021/05/18 03:52:24;;;;;;;3.80;1.63;;;11.10;99.90;;;;;;5092501;28;20208;-74
2021/05/18 03:55:07;;;;;;;6.10;2.60;;;11.10;99.90;;;;;;5092486;28;20742;-75
2021/05/18 04:03:09;;;;;;;7.60;2.23;;;11.20;99.90;;;;;;5091973;28;20211;-74
2021/05/18 04:19:18;;;;;;;5.77;2.60;;;11.20;99.90;;;;;;5091293;28;20255;-75
2021/05/18 04:21:51;;;;;;;8.00;2.87;;;11.20;99.90;;;;;;5091763;28;20587;-75
2021/05/18 04:51:47;;;;;;;5.33;2.40;;;11.50;99.90;;;;;;5075526;28;20229;-74
2021/05/18 04:54:47;;;;;;;7.30;2.73;;;11.50;99.90;;;;;;5070159;28;20772;-74
2021/05/18 05:00:00;;;;;;;8.13;2.40;;;11.50;99.90;;;;;;5089851;28;20727;-73
2021/05/18 05:02:50;;;;;;;6.50;2.30;;;11.50;99.90;;;;;;5090616;28;20688;-73
2021/05/18 05:08:05;;;;;;;8.63;2.60;;;11.50;99.90;;;;;;5066141;28;20203;-73
2021/05/18 05:16:02;;;;;;;9.00;3.47;;;11.60;99.90;;;;;;5089976;28;20204;-72
2021/05/18 05:18:28;;;;;;;9.47;3.00;;;11.60;99.90;;;;;;5089574;28;20208;-72
2021/05/18 05:20:56;;;;;;;8.27;2.50;;;11.70;99.90;;;;;;5089160;28;20743;-72
2021/05/18 05:23:22;;;;;;;10.10;2.83;;;11.70;99.90;;;;;;5090243;28;20258;-72
2021/05/18 05:25:49;;;;;;;8.93;3.00;;;11.80;99.90;;;;;;5090492;28;20217;-72
2021/05/18 05:28:15;;;;;;;8.90;2.10;;;11.80;99.90;;;;;;5090418;28;20198;-73
2021/05/18 05:30:41;;;;;;;7.70;3.07;;;11.90;99.90;;;;;;5090976;28;20209;-72
2021/05/18 05:33:08;;;;;;;8.40;4.00;;;11.90;99.90;;;;;;5090287;28;20225;-73
2021/05/18 05:35:34;;;;;;;12.17;4.43;;;12.00;99.90;;;;;;5090832;28;20205;-71
2021/05/18 05:38:02;;;;;;;10.27;3.70;;;12.00;99.90;;;;;;5090110;28;20216;-73
2021/05/18 05:40:28;;;;;;;17.23;4.50;;;12.00;99.90;;;;;;5090153;28;20217;-73
2021/05/18 05:42:55;;;;;;;6.77;2.97;;;12.00;99.90;;;;;;5089512;28;20205;-74
2021/05/18 05:45:21;;;;;;;8.13;2.87;;;12.00;99.90;;;;;;5091049;28;20197;-73
2021/05/18 05:47:48;;;;;;;7.67;2.90;;;12.00;99.90;;;;;;5090805;28;20216;-73
2021/05/18 05:50:14;;;;;;;9.63;2.77;;;12.10;99.90;;;;;;5089902;28;20205;-74
2021/05/18 05:52:41;;;;;;;7.90;2.73;;;12.10;99.90;;;;;;5090213;28;20206;-73
2021/05/18 05:55:10;;;;;;;7.93;3.23;;;12.30;99.90;;;;;;5089844;28;20673;-72
2021/05/18 05:57:36;;;;;;;4.97;2.40;;;12.30;99.90;;;;;;5090449;28;20237;-73
2021/05/18 06:00:05;;;;;;;4.80;2.20;;;12.40;99.90;;;;;;5090254;28;20205;-74
2021/05/18 06:02:31;;;;;;;8.97;3.00;;;12.50;99.90;;;;;;5090022;28;20204;-72
2021/05/18 06:04:58;;;;;;;15.73;3.53;;;12.20;99.90;;;;;;5090822;28;20263;-74
2021/05/18 06:07:24;;;;;;;9.30;2.47;;;12.40;99.90;;;;;;5093667;28;20612;-75
2021/05/18 06:09:55;;;;;;;11.47;3.70;;;14.20;99.90;;;;;;5096610;28;20205;-74
2021/05/18 06:12:33;;;;;;;9.00;2.50;;;12.50;99.90;;;;;;5069759;28;20206;-74
2021/05/18 06:15:34;;;;;;;5.43;2.83;;;12.60;99.90;;;;;;5085256;28;20221;-72
2021/05/18 06:29:32;;;;;;;5.23;3.00;;;12.60;99.90;;;;;;5067977;28;20204;-73
2021/05/18 06:37:45;;;;;;;6.82;2.63;;;13.40;99.90;;;;;;5068751;28;20237;-72
2021/05/18 06:43:07;;;;;;;5.90;2.10;;;13.40;99.90;;;;;;5076503;28;20653;-72
2021/05/18 06:48:19;;;;;;;7.03;2.87;;;13.50;99.90;;;;;;5078497;28;20213;-72
2021/05/18 06:50:46;;;;;;;8.38;2.70;;;13.70;99.90;;;;;;5078850;28;20214;-72
2021/05/18 06:53:13;;;;;;;9.50;3.88;;;13.60;99.90;;;;;;5065645;28;20234;-74
2021/05/18 06:55:39;;;;;;;8.85;2.28;;;13.70;99.90;;;;;;5078252;28;20251;-74
2021/05/18 06:58:09;;;;;;;10.05;2.47;;;14.10;99.90;;;;;;5072672;28;20248;-76
2021/05/18 07:00:37;;;;;;;8.88;3.55;;;14.10;99.90;;;;;;5076012;28;20213;-72
2021/05/18 07:03:06;;;;;;;11.60;3.15;;;14.10;99.90;;;;;;5073699;28;20297;-73
2021/05/18 07:05:37;;;;;;;6.63;2.78;;;13.70;99.90;;;;;;5073538;28;20669;-73
2021/05/18 07:08:53;;;;;;;5.65;2.67;;;14.00;99.90;;;;;;5072704;28;20662;-80
2021/05/18 07:10:57;;;;;;;7.20;3.17;;;14.00;99.90;;;;;;5076058;28;20228;-75
2021/05/18 07:13:24;;;;;;;9.23;4.93;;;14.00;99.90;;;;;;5079114;28;20235;-77
2021/05/18 07:15:54;;;;;;;5.68;2.67;;;13.80;99.90;;;;;;5079085;28;20256;-79
2021/05/18 07:18:21;;;;;;;8.00;3.08;;;14.10;99.90;;;;;;5090056;28;20556;-73
2021/05/18 07:20:47;;;;;;;7.95;2.88;;;14.00;99.90;;;;;;5080776;28;20206;-74
2021/05/18 07:23:16;;;;;;;12.40;2.92;;;13.70;99.90;;;;;;5089809;28;20218;-74
2021/05/18 07:25:42;;;;;;;7.00;3.28;;;14.00;99.90;;;;;;5086545;28;20274;-77
2021/05/18 07:28:09;;;;;;;18.85;3.67;;;14.00;99.90;;;;;;5088003;28;20204;-75
2021/05/18 07:30:36;;;;;;;9.98;3.20;;;14.00;99.90;;;;;;5083028;28;20206;-75
2021/05/18 07:33:04;;;;;;;6.38;2.42;;;13.80;99.90;;;;;;5064991;28;20201;-77
2021/05/18 07:35:31;;;;;;;7.32;2.28;;;13.90;99.90;;;;;;5075725;28;20206;-79
2021/05/18 07:37:57;;;;;;;8.90;3.38;;;14.10;99.90;;;;;;5071620;28;20222;-78
2021/05/18 07:40:24;;;;;;;7.82;2.50;;;14.30;99.90;;;;;;5072065;28;20598;-76
2021/05/18 07:42:52;;;;;;;9.35;2.70;;;14.30;99.90;;;;;;5077416;28;20616;-74
2021/05/18 07:45:19;;;;;;;9.40;3.08;;;14.50;99.90;;;;;;5087749;28;20583;-74
2021/05/18 07:47:45;;;;;;;12.07;3.00;;;14.70;99.90;;;;;;5078508;28;20210;-75
2021/05/18 07:50:15;;;;;;;6.38;2.42;;;14.40;99.90;;;;;;5085150;28;20205;-76
2021/05/18 08:06:20;;;;;;;4.85;1.75;;;15.20;99.90;;;;;;5073728;28;20569;-75
2021/05/18 08:08:47;;;;;;;8.02;2.65;;;15.00;99.90;;;;;;5075453;28;20264;-75
2021/05/18 08:11:13;;;;;;;11.00;2.25;;;14.80;99.90;;;;;;5071440;28;20205;-75
2021/05/18 08:13:40;;;;;;;7.40;2.05;;;14.70;99.90;;;;;;5077308;28;20638;-75
2021/05/18 08:19:21;;;;;;;9.13;3.22;;;15.40;99.90;;;;;;5087470;28;20205;-74
2021/05/18 08:22:25;;;;;;;14.23;3.10;;;15.90;99.90;;;;;;5074825;28;20244;-76
2021/05/18 10:36:03;;;;;;;9.35;2.08;;;20.00;99.90;;;;;;5083282;28;20224;-80
2021/05/18 10:38:33;;;;;;;6.53;1.85;;;19.60;99.90;;;;;;5075134;28;20250;-80
2021/05/18 10:41:16;;;;;;;5.22;1.88;;;19.60;99.90;;;;;;5073803;28;20202;-79
2021/05/18 10:43:44;;;;;;;7.85;2.30;;;18.90;99.90;;;;;;5065899;28;20210;-79
2021/05/18 10:46:24;;;;;;;7.13;2.17;;;19.20;99.90;;;;;;5071514;28;20305;-78
2021/05/18 10:48:55;;;;;;;4.15;1.75;;;19.70;99.90;;;;;;5073412;28;20242;-78
2021/05/18 10:51:30;;;;;;;45.45;6.75;;;19.60;99.90;;;;;;5079144;28;20202;-77
2021/05/18 10:54:17;;;;;;;3.45;1.60;;;18.90;99.90;;;;;;5085209;28;20217;-80
2021/05/18 10:57:20;;;;;;;5.28;2.15;;;18.40;99.90;;;;;;5073122;28;20290;-81
2021/05/18 10:59:53;;;;;;;4.05;1.88;;;19.20;99.90;;;;;;5079019;28;20213;-81
2021/05/18 11:02:22;;;;;;;4.18;1.50;;;19.60;99.90;;;;;;5079566;28;20217;-78
2021/05/18 11:04:51;;;;;;;5.93;1.60;;;19.80;99.90;;;;;;5058014;28;20206;-80
2021/05/18 11:07:21;;;;;;;5.20;1.73;;;19.70;99.90;;;;;;5071883;28;20293;-79
2021/05/18 11:09:50;;;;;;;4.72;1.80;;;19.50;99.90;;;;;;5062652;28;20215;-83
2021/05/18 11:12:18;;;;;;;3.53;1.20;;;19.10;99.90;;;;;;5073939;28;20207;-80
2021/05/18 11:14:51;;;;;;;3.88;1.30;;;19.00;99.90;;;;;;5089632;28;20229;-82
2021/05/18 11:17:21;;;;;;;3.38;1.65;;;18.60;99.90;;;;;;5075511;28;20206;-78
2021/05/18 11:20:07;;;;;;;3.05;1.33;;;19.10;99.90;;;;;;5069047;28;20681;-80
2021/05/18 11:25:35;;;;;;;7.57;1.83;;;19.90;99.90;;;;;;5078844;28;20282;-80
2021/05/18 11:28:10;;;;;;;8.30;4.03;;;19.90;99.90;;;;;;5084745;28;20198;-81
2021/05/18 11:30:36;;;;;;;8.40;2.08;;;18.90;99.90;;;;;;5078059;28;20714;-80
2021/05/18 11:33:04;;;;;;;3.95;1.42;;;19.20;99.90;;;;;;5086421;28;20224;-81
2021/05/18 11:35:31;;;;;;;3.63;1.60;;;19.30;99.90;;;;;;5062680;28;20718;-81
2021/05/18 11:38:14;;;;;;;5.63;1.95;;;19.40;99.90;;;;;;5075603;28;20214;-81
2021/05/18 11:40:48;;;;;;;2.60;1.88;;;19.10;99.90;;;;;;5081385;28;20275;-81
2021/05/18 11:43:16;;;;;;;6.15;2.13;;;19.00;99.90;;;;;;5084507;28;20209;-79
2021/05/18 11:45:44;;;;;;;2.78;1.23;;;19.40;99.90;;;;;;5067381;28;20571;-79
2021/05/18 11:48:15;;;;;;;4.47;2.28;;;19.80;99.90;;;;;;5083270;28;20673;-79
2021/05/18 11:50:42;;;;;;;5.32;1.70;;;19.40;99.90;;;;;;5087251;28;20613;-79
2021/05/18 11:53:28;;;;;;;3.63;1.40;;;19.60;99.90;;;;;;5066285;28;20213;-79
2021/05/18 11:55:54;;;;;;;3.45;1.63;;;19.60;99.90;;;;;;5076574;28;20690;-76
2021/05/18 11:58:21;;;;;;;3.30;1.50;;;19.50;99.90;;;;;;5074042;28;20728;-75
2021/05/18 12:00:47;;;;;;;3.10;1.75;;;19.30;99.90;;;;;;5071169;28;20214;-78
2021/05/18 12:03:14;;;;;;;8.25;2.40;;;19.30;99.90;;;;;;5077061;28;20210;-76
2021/05/18 12:05:52;;;;;;;5.70;1.88;;;19.70;99.90;;;;;;5075336;28;20694;-78
2021/05/18 12:08:27;;;;;;;4.63;1.45;;;19.40;99.90;;;;;;5072814;28;20206;-79
2021/05/18 12:10:53;;;;;;;5.22;3.03;;;19.80;99.90;;;;;;5076536;28;20205;-76
2021/05/18 12:13:30;;;;;;;5.22;2.50;;;20.30;99.90;;;;;;5076145;28;20206;-77
2021/05/18 12:16:01;;;;;;;4.40;2.20;;;19.50;99.90;;;;;;5074470;28;20288;-75
2021/05/18 12:18:30;;;;;;;1.95;1.15;;;20.30;99.90;;;;;;5063826;28;20207;-75
2021/05/18 12:21:05;;;;;;;2.80;1.30;;;20.70;99.90;;;;;;5071926;28;20704;-77
2021/05/18 12:23:32;;;;;;;2.70;1.20;;;21.00;99.90;;;;;;5062893;28;20688;-74
2021/05/18 12:26:13;;;;;;;4.72;1.58;;;21.00;99.90;;;;;;5066901;28;20643;-74
2021/05/18 12:28:53;;;;;;;6.28;1.80;;;21.10;99.90;;;;;;5069063;28;20256;-73
2021/05/18 12:31:31;;;;;;;7.63;1.77;;;20.80;99.90;;;;;;5069313;28;20670;-76
2021/05/18 12:33:58;;;;;;;6.30;2.30;;;20.70;99.90;;;;;;5081731;28;20243;-78
2021/05/18 12:36:24;;;;;;;11.35;1.45;;;20.20;99.90;;;;;;5083468;28;20202;-77
2021/05/18 12:39:12;;;;;;;5.20;1.75;;;20.50;99.90;;;;;;5062020;28;20202;-75
2021/05/18 12:41:50;;;;;;;6.47;1.48;;;20.30;99.90;;;;;;5077703;28;20205;-77
2021/05/18 12:44:17;;;;;;;5.63;1.90;;;20.00;99.90;;;;;;5069863;28;20202;-74
2021/05/18 12:46:58;;;;;;;2.83;1.60;;;20.00;99.90;;;;;;5068092;28;20700;-74
2021/05/18 12:49:29;;;;;;;2.72;1.48;;;20.20;99.90;;;;;;5067856;28;20202;-73
2021/05/18 12:52:01;;;;;;;3.55;2.10;;;21.00;99.90;;;;;;5067247;28;20198;-76
2021/05/18 12:54:46;;;;;;;4.50;1.85;;;20.70;99.90;;;;;;5065254;28;20237;-74
2021/05/18 12:57:17;;;;;;;3.42;1.60;;;20.50;99.90;;;;;;5062540;28;20626;-78
2021/05/18 13:00:08;;;;;;;2.45;1.92;;;19.90;99.90;;;;;;5073179;28;20595;-75
2021/05/18 13:02:37;;;;;;;6.65;1.50;;;20.10;99.90;;;;;;5073036;28;20204;-73
2021/05/18 13:05:16;;;;;;;4.32;1.20;;;20.40;99.90;;;;;;5077356;28;20205;-76
2021/05/18 13:07:44;;;;;;;4.07;1.45;;;20.50;99.90;;;;;;5084604;28;20216;-76
2021/05/18 13:10:17;;;;;;;2.55;1.50;;;20.60;99.90;;;;;;5076453;28;20209;-76
2021/05/18 13:12:44;;;;;;;4.25;2.05;;;20.50;99.90;;;;;;5062950;28;20205;-74
2021/05/18 13:15:12;;;;;;;2.28;1.08;;;20.10;99.90;;;;;;5059615;28;20708;-74
2021/05/18 13:17:52;;;;;;;3.30;0.93;;;19.90;99.90;;;;;;5059476;28;20205;-76
2021/05/18 13:20:19;;;;;;;3.45;1.88;;;19.90;99.90;;;;;;5072316;28;20205;-74
2021/05/18 13:22:50;;;;;;;3.70;1.40;;;19.70;99.90;;;;;;5085082;28;20216;-76
2021/05/18 13:28:04;;;;;;;2.28;1.02;;;18.80;99.90;;;;;;5083252;28;20674;-73
2021/05/18 13:30:32;;;;;;;5.60;1.90;;;19.20;99.90;;;;;;5087039;28;20205;-74
2021/05/18 13:32:59;;;;;;;6.53;1.98;;;19.70;99.90;;;;;;5083902;28;20697;-74
2021/05/18 13:35:28;;;;;;;5.28;1.60;;;20.00;99.90;;;;;;5078094;28;20237;-77
2021/05/18 13:37:55;;;;;;;2.80;1.15;;;20.30;99.90;;;;;;5081040;28;20206;-78
2021/05/18 13:40:24;;;;;;;4.05;1.45;;;20.50;99.90;;;;;;5085693;28;20206;-75
2021/05/18 13:42:52;;;;;;;3.67;1.65;;;19.50;99.90;;;;;;5082911;28;20614;-74
2021/05/18 13:45:20;;;;;;;3.00;1.20;;;19.50;99.90;;;;;;5087016;28;20267;-74
2021/05/18 13:47:47;;;;;;;5.80;1.38;;;19.30;99.90;;;;;;5084262;28;20205;-75
2021/05/18 13:50:14;;;;;;;1.73;1.00;;;19.40;99.90;;;;;;5072753;28;20205;-74
2021/05/18 13:52:41;;;;;;;1.90;1.20;;;19.20;99.90;;;;;;5090392;28;20572;-74
2021/05/18 13:55:09;;;;;;;3.78;1.17;;;19.20;99.90;;;;;;5090047;28;20294;-74
2021/05/18 13:57:36;;;;;;;2.95;1.00;;;19.90;99.90;;;;;;5090435;28;20197;-75
2021/05/18 14:00:08;;;;;;;5.93;1.17;;;19.50;99.90;;;;;;5089810;28;20296;-76
2021/05/18 14:02:36;;;;;;;5.80;0.90;;;19.40;99.90;;;;;;5090094;28;20641;-74
2021/05/18 14:05:03;;;;;;;4.47;1.30;;;19.60;99.90;;;;;;5089436;28;20209;-76
2021/05/18 14:07:51;;;;;;;2.17;1.55;;;19.70;99.90;;;;;;5089959;28;20202;-75
2021/05/18 14:10:18;;;;;;;5.05;1.85;;;20.00;99.90;;;;;;5090243;28;20206;-77
2021/05/18 14:12:45;;;;;;;5.13;1.60;;;19.70;99.90;;;;;;5089997;28;20206;-75
2021/05/18 14:15:12;;;;;;;6.78;1.92;;;19.20;99.90;;;;;;5089851;28;20751;-74
2021/05/18 14:17:39;;;;;;;8.18;2.72;;;19.10;99.90;;;;;;5090052;28;20259;-74
2021/05/18 14:20:07;;;;;;;5.15;2.42;;;18.90;99.90;;;;;;5090043;28;20209;-74
2021/05/18 14:22:34;;;;;;;4.97;2.30;;;18.80;99.90;;;;;;5089940;28;20206;-76
2021/05/18 14:25:05;;;;;;;7.75;2.17;;;18.70;99.90;;;;;;5089538;28;20605;-75
2021/05/18 14:27:32;;;;;;;5.68;2.15;;;17.90;99.90;;;;;;5077739;28;20206;-73
2021/05/18 14:29:59;;;;;;;5.00;2.38;;;18.20;99.90;;;;;;5087683;28;20601;-74
2021/05/18 14:32:26;;;;;;;4.60;2.03;;;18.10;99.90;;;;;;5086341;28;20584;-74
2021/05/18 14:34:52;;;;;;;5.13;2.30;;;17.70;99.90;;;;;;5093517;28;20233;-74
2021/05/18 14:37:19;;;;;;;2.80;1.73;;;17.50;99.90;;;;;;5093977;28;20680;-74
2021/05/18 14:39:56;;;;;;;4.53;2.30;;;17.40;99.90;;;;;;5093560;28;20214;-74
2021/05/18 14:45:11;;;;;;;5.30;1.95;;;17.90;99.90;;;;;;5080854;28;20279;-74
2021/05/18 14:47:45;;;;;;;7.65;2.22;;;18.20;99.90;;;;;;5093793;28;20213;-74
2021/05/18 14:55:40;;;;;;;6.35;1.30;;;17.90;99.90;;;;;;5093274;28;20614;-73
2021/05/18 14:58:07;;;;;;;4.72;1.30;;;17.30;99.90;;;;;;5093133;28;20586;-75
2021/05/18 15:00:36;;;;;;;4.47;1.60;;;16.80;99.90;;;;;;5093060;28;20205;-74
2021/05/18 15:03:04;;;;;;;8.55;1.55;;;16.30;99.90;;;;;;5093349;28;20292;-74
2021/05/18 15:05:30;;;;;;;5.80;1.85;;;16.00;99.90;;;;;;5093121;28;20209;-73
2021/05/18 15:07:57;;;;;;;3.75;1.58;;;15.80;99.90;;;;;;5093134;28;20232;-76
2021/05/18 15:10:23;;;;;;;2.88;1.63;;;15.70;99.90;;;;;;5092086;28;20209;-73
2021/05/18 15:12:50;;;;;;;6.22;1.73;;;15.50;99.90;;;;;;5093274;28;20212;-73
2021/05/18 15:15:16;;;;;;;5.13;1.75;;;15.40;99.90;;;;;;5092710;28;20232;-75
2021/05/18 15:17:44;;;;;;;5.28;1.17;;;15.40;99.90;;;;;;5092830;28;20224;-75
2021/05/18 15:20:12;;;;;;;6.65;2.05;;;15.30;99.90;;;;;;5092498;28;20700;-76
2021/05/18 15:22:39;;;;;;;3.10;1.33;;;15.20;99.90;;;;;;5092749;28;20265;-75
2021/05/18 15:25:07;;;;;;;3.95;1.55;;;14.90;99.90;;;;;;5092484;28;20221;-74
2021/05/18 15:27:34;;;;;;;4.65;1.25;;;14.90;99.90;;;;;;5092499;28;20212;-75
2021/05/18 15:30:01;;;;;;;6.80;1.88;;;14.90;99.90;;;;;;5092907;28;20206;-75
2021/05/18 15:32:27;;;;;;;4.95;1.70;;;14.90;99.90;;;;;;5093096;28;20201;-75
2021/05/18 15:34:54;;;;;;;2.58;1.55;;;14.80;99.90;;;;;;5092177;28;20229;-73
2021/05/18 15:37:21;;;;;;;6.90;2.40;;;14.70;99.90;;;;;;5092580;28;20235;-73
2021/05/18 15:39:48;;;;;;;4.72;1.58;;;14.40;99.90;;;;;;5092879;28;20276;-74
2021/05/18 15:42:15;;;;;;;7.22;1.55;;;14.20;99.90;;;;;;5092189;28;20229;-74
2021/05/18 15:44:41;;;;;;;4.88;1.73;;;14.30;99.90;;;;;;5092500;28;20571;-75
2021/05/18 15:47:08;;;;;;;2.85;1.75;;;13.90;99.90;;;;;;5092427;28;20615;-73
2021/05/18 15:49:35;;;;;;;3.38;1.40;;;13.70;99.90;;;;;;5092242;28;20212;-73
2021/05/18 15:52:04;;;;;;;3.47;1.83;;;13.60;99.90;;;;;;5091903;28;20205;-74
2021/05/18 15:54:30;;;;;;;6.10;2.03;;;13.70;99.90;;;;;;5092170;28;20270;-73
2021/05/18 15:56:57;;;;;;;2.53;1.80;;;13.70;99.90;;;;;;5091602;28;20206;-72
2021/05/18 15:59:24;;;;;;;2.92;1.48;;;13.60;99.90;;;;;;5092249;28;20700;-73
2021/05/18 16:01:50;;;;;;;2.33;1.60;;;13.70;99.90;;;;;;5092489;28;20241;-73
2021/05/18 16:04:17;;;;;;;4.20;1.40;;;13.80;99.90;;;;;;5091938;28;20206;-73
2021/05/18 16:06:44;;;;;;;2.80;1.10;;;13.80;99.90;;;;;;5092035;28;20688;-74
2021/05/18 16:09:12;;;;;;;2.58;1.17;;;13.40;99.90;;;;;;5091540;28;20591;-73
2021/05/18 16:11:39;;;;;;;2.15;1.20;;;13.30;99.90;;;;;;5092359;28;20234;-74
2021/05/18 16:14:06;;;;;;;2.70;1.67;;;13.50;99.90;;;;;;5091217;28;20641;-73
2021/05/18 16:16:33;;;;;;;5.45;1.73;;;13.60;99.90;;;;;;5091732;28;20217;-76
2021/05/18 16:19:00;;;;;;;2.03;1.55;;;13.50;99.90;;;;;;5091507;28;20209;-74
2021/05/18 16:21:28;;;;;;;3.90;1.67;;;13.30;99.90;;;;;;5092015;28;20201;-74
2021/05/18 16:23:56;;;;;;;5.38;1.65;;;13.20;99.90;;;;;;5091406;28;20274;-74
2021/05/18 16:26:25;;;;;;;4.13;1.52;;;13.00;99.90;;;;;;5091833;28;20259;-78
2021/05/18 16:28:52;;;;;;;5.22;1.58;;;13.00;99.90;;;;;;5092323;28;20255;-75
2021/05/18 16:31:19;;;;;;;3.95;1.83;;;13.00;99.90;;;;;;5091542;28;20201;-75
2021/05/18 16:33:46;;;;;;;3.88;1.75;;;13.00;99.90;;;;;;5091460;28;20210;-73
2021/05/18 16:36:15;;;;;;;4.68;1.70;;;12.80;99.90;;;;;;5090778;28;20201;-75
2021/05/18 16:38:42;;;;;;;3.40;1.45;;;12.80;99.90;;;;;;5091730;28;20990;-74
2021/05/18 16:41:09;;;;;;;5.53;1.70;;;12.80;99.90;;;;;;5091141;28;20213;-74
2021/05/18 16:43:37;;;;;;;3.28;1.48;;;12.90;99.90;;;;;;5091713;28;20201;-74
2021/05/18 16:46:04;;;;;;;7.38;2.42;;;12.80;99.90;;;;;;5076097;28;20206;-74
2021/05/18 16:48:32;;;;;;;5.22;1.60;;;12.80;99.90;;;;;;5076327;28;20224;-73
2021/05/18 16:51:00;;;;;;;3.88;1.80;;;13.00;99.90;;;;;;5079961;28;20216;-73
2021/05/18 16:53:27;;;;;;;7.80;1.98;;;13.00;99.90;;;;;;5091516;28;20210;-73
2021/05/18 16:55:54;;;;;;;3.10;1.75;;;12.90;99.90;;;;;;5090830;28;20240;-73
2021/05/18 16:58:21;;;;;;;6.22;1.95;;;12.80;99.90;;;;;;5091468;28;20210;-73
2021/05/18 17:00:48;;;;;;;2.53;1.77;;;12.80;99.90;;;;;;5090964;28;20205;-74
2021/05/18 17:03:15;;;;;;;2.40;1.80;;;12.70;99.90;;;;;;5090754;28;20209;-74
2021/05/18 17:05:42;;;;;;;4.90;1.83;;;12.70;99.90;;;;;;5087885;28;20500;-73
2021/05/18 17:08:09;;;;;;;6.60;1.73;;;12.70;99.90;;;;;;5063398;28;20209;-73
2021/05/18 17:10:38;;;;;;;6.53;2.50;;;12.70;99.90;;;;;;5083407;28;20630;-73
2021/05/18 17:13:06;;;;;;;4.40;1.83;;;12.60;99.90;;;;;;5076051;28;20686;-73
2021/05/18 17:15:33;;;;;;;3.15;2.13;;;12.50;99.90;;;;;;5070587;28;20713;-73
2021/05/18 17:18:01;;;;;;;3.25;1.80;;;12.60;99.90;;;;;;5071318;28;20623;-72
2021/05/18 17:20:30;;;;;;;2.75;1.92;;;12.60;99.90;;;;;;5070820;28;20210;-72
2021/05/18 17:22:57;;;;;;;2.08;1.63;;;12.60;99.90;;;;;;5070405;28;20206;-73